Weather at John C. Munro Hamilton International Airport

Public forecast

Using degrees Celsius for public forecast. Weather courtesy of forecast.io.

Current aviation weather report (METAR) for John C. Munro Hamilton International Airport

2024/05/28 14:00 (retrieved 1 hour ago)

CYHM 281400Z 26010G15KT 15SM BKN017 OVC025 16/13 A2978 RMK SC7SC1 SLP087 DENSITY ALT 1300FT

Aviation forecast (TAF) for John C. Munro Hamilton International Airport

2024/05/28 12:42 (retrieved 2 hours ago)

TAF CYHM 281141Z 2812/2912 26010KT P6SM SCT015 OVC060 TEMPO 2812/2816 BKN015 OVC060 BECMG 2812/2814 28012G22KT FM281600 30012G22KT P6SM -SHRA SCT020 OVC060 TEMPO 2816/2822 5SM -SHRA BR BKN020 OVC060 PROB30 2818/2822 4SM TSRA BR BKN020CB FM282200 30012KT P6SM BKN030 OVC060 BECMG 2900/2902 31005KT BECMG 2909/2911 01005KT RMK NXT FCST BY 281800Z